Terminal Aerodrome Forecast
Issued by NWS Chicago, IL

Home | Current Version | Previous Version | Text Only | Print | Product List | Glossary Off
Versions: 1 2 3 4 5 6 7 8 9 10 11 12 13 14 15 16 17 18 19 20 21 22 23 24 25 26 27 28 29 30 31 32 33 34 35

000
FTUS43 KLOT 261357 AAA
TAFRFD
TAF AMD
KRFD 261357Z 2614/2712 VRB03KT P6SM BKN060 OVC100
     FM261700 13005KT P6SM VCSH BKN040 OVC080
     FM262000 14005KT P6SM SCT250=

USA.gov is the U.S. government's official web portal to all federal, state and local government web resources and services.